createdAt,value
2018-09-14T00:03:36.066Z,16.00
2018-09-14T00:08:39.195Z,16.00
2018-09-14T00:13:42.196Z,16.00
2018-09-14T00:18:45.196Z,16.00
2018-09-14T00:23:48.167Z,16.00
2018-09-14T00:28:51.128Z,15.90
2018-09-14T00:33:54.162Z,16.00
2018-09-14T00:38:57.159Z,16.00
2018-09-14T00:44:00.148Z,16.00
2018-09-14T00:49:04.182Z,15.90
2018-09-14T00:54:07.548Z,15.90
2018-09-14T00:59:10.560Z,16.00
2018-09-14T01:04:13.520Z,16.00
2018-09-14T01:09:22.021Z,16.00
2018-09-14T01:14:26.175Z,16.00
2018-09-14T01:19:29.176Z,15.90
2018-09-14T01:24:32.219Z,15.90
2018-09-14T01:29:35.411Z,15.80
2018-09-14T01:34:38.401Z,15.80
2018-09-14T01:39:41.470Z,15.80
2018-09-14T01:44:44.459Z,15.80
2018-09-14T01:49:47.427Z,15.90
2018-09-14T01:54:50.631Z,16.00
2018-09-14T01:59:53.851Z,16.00
2018-09-14T02:04:56.927Z,16.10
2018-09-14T02:09:59.935Z,16.20
2018-09-14T02:15:03.550Z,16.20
2018-09-14T02:20:06.536Z,16.10
2018-09-14T02:25:09.817Z,16.10
2018-09-14T02:30:12.868Z,16.10
2018-09-14T02:35:15.868Z,16.00
2018-09-14T02:40:18.895Z,16.00
2018-09-14T02:45:21.913Z,15.80
2018-09-14T02:50:24.867Z,15.80
2018-09-14T02:55:27.945Z,15.80
2018-09-14T03:00:30.963Z,15.80
2018-09-14T03:05:34.404Z,15.80
2018-09-14T03:10:37.500Z,15.80
2018-09-14T03:15:40.668Z,15.80
2018-09-14T03:20:43.667Z,15.80
2018-09-14T03:25:47.015Z,15.80
2018-09-14T03:30:50.008Z,15.80
2018-09-14T03:35:52.984Z,15.80
2018-09-14T03:40:55.951Z,15.80
2018-09-14T03:45:58.931Z,15.70
2018-09-14T03:51:03.636Z,15.70
2018-09-14T03:56:06.773Z,15.70
2018-09-14T04:01:09.795Z,15.70
2018-09-14T04:06:12.731Z,15.70
2018-09-14T04:11:15.731Z,15.70
2018-09-14T04:16:18.892Z,15.60
2018-09-14T04:21:22.032Z,15.60
2018-09-14T04:26:25.784Z,15.60
2018-09-14T04:31:29.062Z,15.60
2018-09-14T04:36:32.039Z,15.60
2018-09-14T04:41:35.109Z,15.60
2018-09-14T04:46:38.118Z,15.60
2018-09-14T04:51:41.191Z,15.50
2018-09-14T04:56:44.192Z,15.60
2018-09-14T05:01:47.260Z,15.60
2018-09-14T05:06:50.229Z,15.60
2018-09-14T05:11:53.280Z,15.50
2018-09-14T05:16:56.524Z,15.50
2018-09-14T05:21:59.478Z,15.50
2018-09-14T05:27:03.359Z,15.60
2018-09-14T05:32:06.919Z,15.60
2018-09-14T05:37:10.068Z,15.60
2018-09-14T05:42:13.091Z,15.60
2018-09-14T05:47:16.162Z,15.70
2018-09-14T05:52:19.175Z,15.70
2018-09-14T05:57:22.166Z,15.90
2018-09-14T06:02:25.468Z,16.00
2018-09-14T06:07:28.516Z,16.00
2018-09-14T06:12:31.501Z,16.00
2018-09-14T06:17:34.478Z,15.90
2018-09-14T06:22:37.479Z,16.00
2018-09-14T06:27:40.752Z,16.00
2018-09-14T06:32:44.061Z,16.00
2018-09-14T06:37:47.030Z,16.10
2018-09-14T06:42:50.018Z,16.30
2018-09-14T06:47:53.034Z,16.20
2018-09-14T06:52:56.089Z,16.40
2018-09-14T06:57:59.080Z,16.50
2018-09-14T07:03:03.705Z,16.80
2018-09-14T07:08:06.751Z,17.10
2018-09-14T07:13:09.851Z,17.20
2018-09-14T07:18:12.823Z,19.60
2018-09-14T07:23:15.770Z,21.60
2018-09-14T07:28:18.901Z,22.20
2018-09-14T07:33:21.892Z,21.40
2018-09-14T07:38:25.001Z,22.10
2018-09-14T07:43:28.223Z,21.50
2018-09-14T07:48:31.332Z,20.30
2018-09-14T07:53:34.416Z,19.90
2018-09-14T07:58:37.400Z,18.80
2018-09-14T08:03:40.396Z,19.20
2018-09-14T08:08:43.454Z,19.40
2018-09-14T08:13:46.456Z,19.40
2018-09-14T08:18:49.711Z,19.60
2018-09-14T08:23:52.915Z,19.70
2018-09-14T08:28:55.861Z,19.30
2018-09-14T08:33:58.813Z,19.10
2018-09-14T08:39:03.576Z,19.40
2018-09-14T08:44:06.600Z,19.30
2018-09-14T08:49:09.568Z,19.40
2018-09-14T08:54:12.887Z,19.50
2018-09-14T08:59:15.921Z,19.80
2018-09-14T09:04:18.930Z,20.20
2018-09-14T09:09:21.932Z,20.20
2018-09-14T09:14:25.222Z,20.40
2018-09-14T09:19:28.429Z,20.40
2018-09-14T09:24:31.385Z,20.70
2018-09-14T09:29:34.463Z,21.10
2018-09-14T09:34:37.648Z,21.10
2018-09-14T09:39:40.724Z,21.40
2018-09-14T09:44:43.788Z,21.30
2018-09-14T09:49:46.960Z,21.00
2018-09-14T09:54:50.032Z,21.30
2018-09-14T09:59:53.078Z,21.00
2018-09-14T10:05:02.646Z,21.90
2018-09-14T10:10:05.745Z,21.40
2018-09-14T10:15:08.864Z,21.80
2018-09-14T10:20:11.793Z,21.70
2018-09-14T10:25:14.851Z,21.60
2018-09-14T10:30:17.808Z,21.90
2018-09-14T10:35:20.753Z,22.20
2018-09-14T10:40:23.972Z,22.60
2018-09-14T10:45:27.491Z,23.10
2018-09-14T10:50:30.468Z,23.20
2018-09-14T10:55:33.511Z,23.40
2018-09-14T11:00:36.585Z,23.60
2018-09-14T11:05:39.612Z,24.00
2018-09-14T11:10:42.599Z,23.70
2018-09-14T11:15:45.703Z,23.40
2018-09-14T11:20:48.719Z,23.70
2018-09-14T11:25:51.760Z,23.50
2018-09-14T11:30:54.811Z,23.80
2018-09-14T11:35:57.823Z,23.90
2018-09-14T11:41:01.247Z,24.20
2018-09-14T11:46:04.876Z,24.10
2018-09-14T11:51:07.968Z,24.30
2018-09-14T11:56:11.113Z,25.00
2018-09-14T12:01:14.636Z,25.20
2018-09-14T12:06:17.705Z,24.90
2018-09-14T12:11:20.759Z,24.40
2018-09-14T12:16:23.796Z,24.40
2018-09-14T12:21:26.900Z,23.90
2018-09-14T12:26:29.911Z,23.40
2018-09-14T12:31:32.994Z,23.10
2018-09-14T12:36:35.987Z,23.10
2018-09-14T12:41:39.231Z,23.20
2018-09-14T12:46:42.363Z,23.50
2018-09-14T12:51:45.592Z,23.60
2018-09-14T12:56:48.770Z,23.90
2018-09-14T13:01:51.804Z,24.10
2018-09-14T13:06:54.867Z,24.40
2018-09-14T13:11:57.991Z,24.20
2018-09-14T13:17:03.098Z,23.70
2018-09-14T13:22:06.688Z,23.70
2018-09-14T13:27:09.740Z,23.90
2018-09-14T13:32:12.890Z,24.00
2018-09-14T13:37:17.499Z,24.20
2018-09-14T13:42:20.698Z,23.80
2018-09-14T13:47:28.892Z,23.30
2018-09-14T13:52:31.880Z,23.40
2018-09-14T13:57:35.328Z,23.80
2018-09-14T14:02:38.437Z,23.90
2018-09-14T14:07:41.582Z,24.00
2018-09-14T14:12:44.627Z,23.90
2018-09-14T14:17:47.716Z,23.90
2018-09-14T14:22:50.853Z,24.00
2018-09-14T14:27:53.888Z,24.30
2018-09-14T14:32:57.037Z,23.90
2018-09-14T14:38:00.072Z,23.50
2018-09-14T14:43:03.475Z,23.80
2018-09-14T14:48:06.631Z,24.00
2018-09-14T14:53:09.854Z,24.20
2018-09-14T14:58:12.843Z,24.10
2018-09-14T15:03:15.849Z,23.80
2018-09-14T15:08:18.966Z,23.90
2018-09-14T15:13:21.958Z,23.70
2018-09-14T15:18:25.223Z,24.00
2018-09-14T15:23:28.500Z,24.00
2018-09-14T15:28:31.823Z,23.70
2018-09-14T15:33:34.924Z,23.80
2018-09-14T15:38:38.004Z,23.60
2018-09-14T15:43:41.161Z,23.40
2018-09-14T15:48:44.320Z,23.30
2018-09-14T15:53:47.378Z,23.30
2018-09-14T15:58:50.450Z,23.40
2018-09-14T16:03:53.516Z,23.30
2018-09-14T16:08:56.620Z,23.10
2018-09-14T16:13:59.782Z,23.20
2018-09-14T16:19:04.146Z,23.00
2018-09-14T16:24:07.262Z,22.80
2018-09-14T16:29:10.280Z,22.70
2018-09-14T16:34:13.396Z,22.70
2018-09-14T16:39:16.945Z,22.60
2018-09-14T16:44:19.992Z,22.50
2018-09-14T16:49:23.012Z,22.40
2018-09-14T16:54:26.147Z,22.30
2018-09-14T16:59:29.339Z,22.30
2018-09-14T17:04:32.604Z,22.20
2018-09-14T17:09:35.666Z,22.10
2018-09-14T17:14:38.786Z,22.00
2018-09-14T17:19:41.842Z,21.40
2018-09-14T17:24:45.589Z,21.10
2018-09-14T17:29:48.762Z,20.90
2018-09-14T17:34:51.886Z,20.70
2018-09-14T17:39:55.083Z,20.60
2018-09-14T17:44:58.110Z,20.60
2018-09-14T17:50:05.168Z,20.60
2018-09-14T17:55:08.591Z,20.60
2018-09-14T18:00:11.768Z,20.70
2018-09-14T18:05:14.885Z,20.60
2018-09-14T18:10:17.932Z,20.60
2018-09-14T18:15:21.023Z,20.50
2018-09-14T18:20:24.116Z,20.30
2018-09-14T18:25:27.206Z,20.30
2018-09-14T18:30:30.531Z,20.30
2018-09-14T18:35:34.037Z,20.20
2018-09-14T18:40:37.083Z,20.20
2018-09-14T18:45:40.116Z,20.20
2018-09-14T18:50:43.198Z,20.10
2018-09-14T18:55:46.668Z,19.80
2018-09-14T19:00:50.528Z,19.70
2018-09-14T19:05:53.576Z,19.60
2018-09-14T19:10:56.741Z,19.60
2018-09-14T19:15:59.935Z,19.50
2018-09-14T19:21:04.368Z,19.30
2018-09-14T19:26:07.458Z,19.30
2018-09-14T19:31:10.613Z,19.30
2018-09-14T19:36:13.762Z,19.30
2018-09-14T19:41:16.947Z,19.10
2018-09-14T19:46:20.282Z,18.90
2018-09-14T19:51:23.580Z,18.70
2018-09-14T19:56:26.592Z,18.50
2018-09-14T20:01:29.752Z,18.30
2018-09-14T20:06:32.843Z,18.20
2018-09-14T20:11:36.137Z,18.20
2018-09-14T20:16:39.540Z,18.20
2018-09-14T20:21:42.569Z,18.10
2018-09-14T20:26:45.785Z,17.90
2018-09-14T20:31:48.864Z,17.70
2018-09-14T20:36:52.072Z,17.80
2018-09-14T20:41:55.265Z,17.90
2018-09-14T20:46:58.573Z,18.10
2018-09-14T20:52:03.748Z,18.20
2018-09-14T20:57:06.783Z,17.90
2018-09-14T21:02:09.904Z,18.00
2018-09-14T21:07:13.239Z,18.00
2018-09-14T21:12:16.560Z,17.80
2018-09-14T21:17:19.683Z,17.80
2018-09-14T21:22:22.744Z,17.80
2018-09-14T21:27:25.811Z,17.70
2018-09-14T21:32:28.853Z,17.80
2018-09-14T21:37:31.859Z,17.70
2018-09-14T21:42:34.887Z,17.60
2018-09-14T21:47:37.938Z,17.50
2018-09-14T21:52:41.278Z,17.30
2018-09-14T21:57:44.350Z,17.10
2018-09-14T22:02:47.347Z,16.90
2018-09-14T22:07:50.368Z,16.70
2018-09-14T22:12:53.697Z,16.50
2018-09-14T22:17:56.715Z,16.40
2018-09-14T22:22:59.700Z,16.40
2018-09-14T22:28:05.491Z,16.30
2018-09-14T22:33:08.760Z,16.40
2018-09-14T22:38:12.028Z,16.40
2018-09-14T22:43:15.053Z,16.40
2018-09-14T22:48:18.098Z,16.50
2018-09-14T22:53:21.116Z,16.50
2018-09-14T22:58:24.207Z,16.40
2018-09-14T23:03:27.228Z,16.30
2018-09-14T23:08:30.207Z,16.20
2018-09-14T23:13:33.199Z,16.20
2018-09-14T23:18:36.197Z,16.10
2018-09-14T23:23:39.307Z,15.90
2018-09-14T23:28:42.363Z,15.80
2018-09-14T23:33:45.439Z,15.60
2018-09-14T23:38:48.408Z,15.60
2018-09-14T23:43:51.415Z,15.40
2018-09-14T23:48:54.380Z,15.20
2018-09-14T23:53:57.344Z,15.10
2018-09-14T23:59:00.336Z,14.90
